createdAt,value
2023-04-06T07:55:00.640Z,9.14
2023-04-06T08:09:56.536Z,10.89
2023-04-06T08:12:23.399Z,11.77
2023-04-06T08:14:50.233Z,12.34
2023-04-06T08:17:17.059Z,12.51
2023-04-06T08:19:45.402Z,12.78
2023-04-06T08:22:12.721Z,13.18
2023-04-06T08:24:39.737Z,13.25
2023-04-06T08:27:06.524Z,13.36
2023-04-06T08:29:33.426Z,13.71
2023-04-06T08:32:00.227Z,14.13
2023-04-06T08:34:27.039Z,13.92
2023-04-06T08:36:53.940Z,14.37
2023-04-06T08:39:26.648Z,14.55
2023-04-06T08:41:54.113Z,14.84
2023-04-06T08:44:20.996Z,14.69
2023-04-06T08:46:47.912Z,14.92
2023-04-06T08:49:15.541Z,15.01
2023-04-06T08:51:43.469Z,14.93
2023-04-06T08:54:10.812Z,14.87
2023-04-06T08:56:41.575Z,14.95
2023-04-06T08:59:10.248Z,14.67
2023-04-06T09:01:42.499Z,14.80
2023-04-06T09:04:12.606Z,14.81
2023-04-06T09:06:41.855Z,15.21
2023-04-06T09:09:09.399Z,15.65
2023-04-06T09:11:53.084Z,15.16
2023-04-06T09:14:38.431Z,15.60
2023-04-06T09:17:05.784Z,15.69
2023-04-06T09:19:32.610Z,16.06
2023-04-06T09:22:04.663Z,16.13
2023-04-06T09:24:41.924Z,16.37
2023-04-06T09:27:08.762Z,15.58
2023-04-06T09:29:37.801Z,15.95
2023-04-06T09:32:08.453Z,16.26
2023-04-06T09:34:35.666Z,16.55
2023-04-06T09:37:13.506Z,16.32
2023-04-06T09:39:40.447Z,16.59
2023-04-06T09:42:07.281Z,16.59
2023-04-06T09:44:34.111Z,16.79
2023-04-06T09:47:01.606Z,16.97
2023-04-06T09:49:29.104Z,16.98
2023-04-06T09:52:01.675Z,17.06
2023-04-06T09:54:31.480Z,16.46
2023-04-06T09:57:10.405Z,17.24
2023-04-06T09:59:57.651Z,17.56
2023-04-06T10:02:42.846Z,16.60
2023-04-06T10:05:17.187Z,16.95
2023-04-06T10:07:58.969Z,16.63
2023-04-06T10:10:28.779Z,16.56
2023-04-06T10:12:57.144Z,16.40
2023-04-06T10:15:24.416Z,16.11
2023-04-06T10:17:52.221Z,16.02
2023-04-06T10:20:27.724Z,16.03
2023-04-06T10:22:58.213Z,15.67
2023-04-06T10:25:32.385Z,16.96
2023-04-06T10:28:09.941Z,16.98
2023-04-06T10:30:43.234Z,17.25
2023-04-06T10:33:17.334Z,17.23
2023-04-06T10:35:44.182Z,17.61
2023-04-06T10:38:12.882Z,18.15
2023-04-06T10:40:48.515Z,18.30
2023-04-06T10:43:20.869Z,18.64
2023-04-06T10:45:56.783Z,18.87
2023-04-06T10:48:25.174Z,18.78
2023-04-06T10:50:53.718Z,19.47
2023-04-06T10:53:25.488Z,19.75
2023-04-06T10:55:53.304Z,19.24
2023-04-06T10:58:20.451Z,20.40
2023-04-06T11:00:51.058Z,20.68
2023-04-06T11:03:19.119Z,19.63
2023-04-06T11:05:48.187Z,19.77
2023-04-06T11:08:26.762Z,19.10
2023-04-06T11:10:54.006Z,19.65
2023-04-06T11:13:20.975Z,20.78
2023-04-06T11:15:47.964Z,21.22
2023-04-06T11:18:18.539Z,21.55
2023-04-06T11:20:49.236Z,22.36
2023-04-06T11:23:23.970Z,22.77
2023-04-06T11:25:54.177Z,22.37
2023-04-06T11:28:21.440Z,21.32
2023-04-06T11:30:48.575Z,21.54
2023-04-06T11:33:23.198Z,21.19
2023-04-06T11:35:50.235Z,22.12
2023-04-06T11:38:20.130Z,22.58
2023-04-06T11:40:47.117Z,22.85
2023-04-06T11:43:13.960Z,23.66
2023-04-06T11:45:43.220Z,24.70
2023-04-06T11:48:19.781Z,24.10
2023-04-06T11:50:48.982Z,23.99
2023-04-06T11:53:15.780Z,24.28
2023-04-06T11:55:46.252Z,24.22
2023-04-06T11:58:13.076Z,24.33
2023-04-06T12:00:39.968Z,25.00
2023-04-06T12:03:07.311Z,26.19
2023-04-06T12:05:34.744Z,26.53
2023-04-06T12:08:03.435Z,26.26
2023-04-06T12:10:30.962Z,26.74
2023-04-06T12:12:57.917Z,27.22
2023-04-06T12:15:24.742Z,27.87
2023-04-06T12:17:51.631Z,27.71
2023-04-06T12:20:25.850Z,28.10
2023-04-06T12:22:54.111Z,27.60
2023-04-06T12:25:21.067Z,27.51
2023-04-06T12:27:48.394Z,27.26
2023-04-06T12:30:15.513Z,26.84
2023-04-06T12:32:42.466Z,25.20
2023-04-06T12:35:10.277Z,27.01
2023-04-06T12:37:38.054Z,27.82
2023-04-06T12:40:05.503Z,27.16
2023-04-06T12:42:32.344Z,26.10
2023-04-06T12:44:59.358Z,27.34
2023-04-06T12:47:27.675Z,27.91
2023-04-06T12:49:55.354Z,28.84
2023-04-06T12:52:22.167Z,28.02
2023-04-06T12:54:50.157Z,27.44
2023-04-06T12:57:18.352Z,26.68
2023-04-06T12:59:45.893Z,26.10
2023-04-06T13:02:13.090Z,26.21
2023-04-06T13:04:40.093Z,26.59
2023-04-06T13:07:07.024Z,25.58
2023-04-06T13:09:33.773Z,26.34
2023-04-06T13:12:00.747Z,26.71
2023-04-06T13:14:27.552Z,26.96
2023-04-06T13:16:54.464Z,27.43
2023-04-06T13:19:21.521Z,27.86
2023-04-06T13:21:48.505Z,27.63
2023-04-06T13:24:16.551Z,27.86
2023-04-06T13:26:44.613Z,27.09
2023-04-06T13:29:11.508Z,26.53
2023-04-06T13:31:38.395Z,25.50
2023-04-06T13:34:05.567Z,23.50
2023-04-06T13:36:33.455Z,21.57
2023-04-06T13:39:00.296Z,22.58
2023-04-06T13:41:27.748Z,21.28
2023-04-06T13:43:54.650Z,21.39
2023-04-06T13:46:21.605Z,20.78
2023-04-06T13:48:48.698Z,20.13
2023-04-06T13:51:16.487Z,18.63
2023-04-06T13:53:43.602Z,17.72
2023-04-06T13:56:10.718Z,17.26
2023-04-06T13:58:37.740Z,17.35
2023-04-06T14:01:11.493Z,17.44
2023-04-06T14:03:39.039Z,16.68
2023-04-06T14:06:29.647Z,16.22
2023-04-06T14:08:58.425Z,16.75
2023-04-06T14:11:25.288Z,16.54
2023-04-06T14:13:52.368Z,15.87
2023-04-06T14:16:20.944Z,15.95
2023-04-06T14:18:47.808Z,16.00
2023-04-06T14:21:17.774Z,16.15
2023-04-06T14:23:44.731Z,16.19
2023-04-06T14:26:11.624Z,16.02
2023-04-06T14:28:38.516Z,15.56
2023-04-06T14:31:13.044Z,15.59
2023-04-06T14:33:40.639Z,15.58
2023-04-06T14:36:08.384Z,15.44
2023-04-06T14:38:36.072Z,15.37
2023-04-06T14:41:03.048Z,15.36
2023-04-06T14:43:29.867Z,14.82
2023-04-06T14:46:01.337Z,14.87
2023-04-06T14:48:28.272Z,14.40
2023-04-06T14:50:58.659Z,14.41
2023-04-06T14:53:26.252Z,14.78
2023-04-06T14:55:53.399Z,14.69
2023-04-06T14:58:21.096Z,14.58
2023-04-06T15:00:48.372Z,14.82
2023-04-06T15:03:15.458Z,14.64
2023-04-06T15:05:42.999Z,14.52
2023-04-06T15:08:14.864Z,14.48
2023-04-06T15:10:42.028Z,14.57
2023-04-06T15:13:08.938Z,14.62
2023-04-06T15:15:39.158Z,14.62
2023-04-06T15:18:06.204Z,14.47
2023-04-06T15:20:33.004Z,14.43
2023-04-06T15:22:59.871Z,14.33
2023-04-06T15:25:26.818Z,13.91
2023-04-06T15:27:53.733Z,13.93
2023-04-06T15:30:20.614Z,13.98
2023-04-06T15:32:56.637Z,13.71
2023-04-06T15:35:23.496Z,13.64
2023-04-06T15:37:50.595Z,13.72
2023-04-06T15:40:17.475Z,13.28
2023-04-06T15:42:44.758Z,13.25
2023-04-06T15:45:12.134Z,13.27
2023-04-06T15:47:39.727Z,13.65
2023-04-06T15:50:07.523Z,13.43
2023-04-06T15:52:36.551Z,13.59
2023-04-06T15:55:05.046Z,13.38
2023-04-06T15:57:32.381Z,13.58
2023-04-06T15:59:59.505Z,13.49
2023-04-06T16:02:26.845Z,13.48
2023-04-06T16:05:03.031Z,13.48
2023-04-06T16:07:30.538Z,13.21
2023-04-06T16:09:57.710Z,13.08
2023-04-06T16:12:25.454Z,13.19
2023-04-06T16:14:53.186Z,13.21
2023-04-06T16:17:20.179Z,12.65
2023-04-06T16:19:46.940Z,12.46
2023-04-06T16:22:13.790Z,12.69
2023-04-06T16:24:40.709Z,12.72
2023-04-06T16:27:07.791Z,12.90
2023-04-06T16:29:35.963Z,12.96
2023-04-06T16:32:03.752Z,13.14
2023-04-06T16:34:33.997Z,13.17
2023-04-06T16:37:02.071Z,13.05
2023-04-06T16:39:29.080Z,13.01
2023-04-06T16:41:56.570Z,13.01
2023-04-06T16:44:23.983Z,13.09
2023-04-06T16:46:51.342Z,13.11
2023-04-06T16:49:20.357Z,13.08
2023-04-06T16:51:47.285Z,13.08
2023-04-06T16:54:14.153Z,13.07
2023-04-06T16:56:41.033Z,12.91
2023-04-06T16:59:11.204Z,12.88
2023-04-06T17:01:38.275Z,12.59
2023-04-06T17:04:05.417Z,12.71
2023-04-06T17:06:32.414Z,11.88
2023-04-06T17:09:00.177Z,11.94
